createdAt,value
2018-06-10T00:01:05.177Z,99686.00
2018-06-10T00:03:33.064Z,99679.00
2018-06-10T00:06:00.894Z,99672.00
2018-06-10T00:08:28.736Z,99678.00
2018-06-10T00:10:56.612Z,99681.00
2018-06-10T00:13:24.352Z,99685.00
2018-06-10T00:15:52.133Z,99679.00
2018-06-10T00:18:19.993Z,99689.00
2018-06-10T00:20:47.759Z,99683.00
2018-06-10T00:23:15.559Z,99682.00
2018-06-10T00:25:43.438Z,99686.00
2018-06-10T00:28:11.303Z,99678.00
2018-06-10T00:30:39.134Z,99672.00
2018-06-10T00:33:06.899Z,99676.00
2018-06-10T00:35:34.737Z,99666.00
2018-06-10T00:38:02.607Z,99664.00
2018-06-10T00:40:30.548Z,99673.00
2018-06-10T00:42:58.411Z,99664.00
2018-06-10T00:45:26.286Z,99663.00
2018-06-10T00:47:54.129Z,99664.00
2018-06-10T00:50:21.953Z,99650.00
2018-06-10T00:52:49.875Z,99647.00
2018-06-10T00:55:17.717Z,99635.00
2018-06-10T00:57:45.561Z,99635.00
2018-06-10T01:00:13.413Z,99652.00
2018-06-10T01:02:41.226Z,99645.00
2018-06-10T01:05:09.114Z,99647.00
2018-06-10T01:07:36.914Z,99643.00
2018-06-10T01:10:04.799Z,99639.00
2018-06-10T01:12:32.559Z,99637.00
2018-06-10T01:15:00.463Z,99643.00
2018-06-10T01:17:28.272Z,99634.00
2018-06-10T01:19:56.114Z,99647.00
2018-06-10T01:22:23.986Z,99643.00
2018-06-10T01:24:51.792Z,99644.00
2018-06-10T01:27:19.641Z,99630.00
2018-06-10T01:29:47.453Z,99629.00
2018-06-10T01:32:15.360Z,99630.00
2018-06-10T01:34:43.204Z,99623.00
2018-06-10T01:37:11.037Z,99625.00
2018-06-10T01:39:38.908Z,99633.00
2018-06-10T01:42:06.715Z,99626.00
2018-06-10T01:44:34.533Z,99621.00
2018-06-10T01:47:02.385Z,99622.00
2018-06-10T01:49:30.217Z,99622.00
2018-06-10T01:51:58.006Z,99622.00
2018-06-10T01:54:25.853Z,99618.00
2018-06-10T01:56:53.684Z,99608.00
2018-06-10T01:59:21.574Z,99632.00
2018-06-10T02:01:49.391Z,99619.00
2018-06-10T02:04:17.197Z,99619.00
2018-06-10T02:06:45.109Z,99620.00
2018-06-10T02:09:12.934Z,99626.00
2018-06-10T02:11:40.713Z,99625.00
2018-06-10T02:14:08.563Z,99620.00
2018-06-10T02:16:36.375Z,99622.00
2018-06-10T02:19:04.321Z,99619.00
2018-06-10T02:21:32.132Z,99621.00
2018-06-10T02:23:59.953Z,99622.00
2018-06-10T02:26:27.802Z,99618.00
2018-06-10T02:28:55.641Z,99618.00
2018-06-10T02:31:23.490Z,99621.00
2018-06-10T02:33:51.325Z,99624.00
2018-06-10T02:36:19.184Z,99625.00
2018-06-10T02:38:46.985Z,99631.00
2018-06-10T02:41:14.797Z,99632.00
2018-06-10T02:43:42.727Z,99633.00
2018-06-10T02:46:10.609Z,99633.00
2018-06-10T02:48:38.456Z,99633.00
2018-06-10T02:51:06.353Z,99641.00
2018-06-10T02:53:35.260Z,99633.00
2018-06-10T02:56:03.193Z,99640.00
2018-06-10T02:58:31.040Z,99642.00
2018-06-10T03:00:58.937Z,99645.00
2018-06-10T03:03:26.792Z,99634.00
2018-06-10T03:05:54.612Z,99647.00
2018-06-10T03:08:22.417Z,99643.00
2018-06-10T03:10:50.299Z,99647.00
2018-06-10T03:13:18.205Z,99640.00
2018-06-10T03:15:45.978Z,99642.00
2018-06-10T03:18:13.725Z,99654.00
2018-06-10T03:20:41.600Z,99648.00
2018-06-10T03:23:09.480Z,99649.00
2018-06-10T03:25:37.294Z,99647.00
2018-06-10T03:28:05.079Z,99649.00
2018-06-10T03:30:33.018Z,99646.00
2018-06-10T03:33:00.852Z,99647.00
2018-06-10T03:35:28.708Z,99639.00
2018-06-10T03:37:56.506Z,99636.00
2018-06-10T03:40:24.317Z,99640.00
2018-06-10T03:42:52.122Z,99640.00
2018-06-10T03:45:19.977Z,99630.00
2018-06-10T03:47:47.781Z,99625.00
2018-06-10T03:50:15.617Z,99625.00
2018-06-10T03:52:43.467Z,99622.00
2018-06-10T03:55:11.268Z,99620.00
2018-06-10T03:57:39.058Z,99629.00
2018-06-10T04:00:06.942Z,99616.00
2018-06-10T04:02:34.753Z,99615.00
2018-06-10T04:05:02.782Z,99615.00
2018-06-10T04:07:30.566Z,99616.00
2018-06-10T04:09:58.413Z,99620.00
2018-06-10T04:12:26.316Z,99622.00
2018-06-10T04:14:54.117Z,99609.00
2018-06-10T04:17:21.928Z,99608.00
2018-06-10T04:19:49.749Z,99616.00
2018-06-10T04:22:17.588Z,99614.00
2018-06-10T04:24:45.413Z,99609.00
2018-06-10T04:27:13.206Z,99612.00
2018-06-10T04:29:40.968Z,99603.00
2018-06-10T04:32:08.835Z,99610.00
2018-06-10T04:34:36.661Z,99610.00
2018-06-10T04:37:04.472Z,99608.00
2018-06-10T04:39:32.312Z,99606.00
2018-06-10T04:42:00.048Z,99603.00
2018-06-10T04:44:27.785Z,99612.00
2018-06-10T04:46:55.661Z,99616.00
2018-06-10T04:49:23.383Z,99614.00
2018-06-10T04:51:51.131Z,99617.00
2018-06-10T04:54:18.957Z,99616.00
2018-06-10T04:56:46.809Z,99611.00
2018-06-10T04:59:14.653Z,99613.00
2018-06-10T05:01:42.456Z,99614.00
2018-06-10T05:04:10.301Z,99610.00
2018-06-10T05:06:38.118Z,99610.00
2018-06-10T05:09:06.458Z,99615.00
2018-06-10T05:11:34.250Z,99609.00
2018-06-10T05:14:02.075Z,99607.00
2018-06-10T05:16:29.887Z,99605.00
2018-06-10T05:18:57.652Z,99605.00
2018-06-10T05:21:25.372Z,99608.00
2018-06-10T05:23:53.115Z,99604.00
2018-06-10T05:26:20.869Z,99584.00
2018-06-10T05:28:48.604Z,99615.00
2018-06-10T05:31:16.365Z,99614.00
2018-06-10T05:33:44.132Z,99610.00
2018-06-10T05:36:11.981Z,99615.00
2018-06-10T05:38:39.824Z,99615.00
2018-06-10T05:41:07.622Z,99622.00
2018-06-10T05:43:35.445Z,99616.00
2018-06-10T05:46:03.267Z,99611.00
2018-06-10T05:48:31.085Z,99603.00
2018-06-10T05:50:58.880Z,99613.00
2018-06-10T05:53:26.872Z,99609.00
2018-06-10T05:55:54.637Z,99620.00
2018-06-10T05:58:22.481Z,99617.00
2018-06-10T06:00:50.269Z,99611.00
2018-06-10T06:03:18.048Z,99625.00
2018-06-10T06:05:45.840Z,99628.00
2018-06-10T06:08:13.683Z,99622.00
2018-06-10T06:10:41.488Z,99622.00
2018-06-10T06:13:09.344Z,99628.00
2018-06-10T06:15:37.270Z,99618.00
2018-06-10T06:18:05.184Z,99621.00
2018-06-10T06:20:32.927Z,99619.00
2018-06-10T06:23:00.708Z,99623.00
2018-06-10T06:25:28.496Z,99617.00
2018-06-10T06:27:56.260Z,99620.00
2018-06-10T06:30:24.106Z,99625.00
2018-06-10T06:32:51.884Z,99612.00
2018-06-10T06:35:19.695Z,99613.00
2018-06-10T06:37:47.480Z,99612.00
2018-06-10T06:40:15.197Z,99609.00
2018-06-10T06:42:43.009Z,99616.00
2018-06-10T06:45:10.837Z,99626.00
2018-06-10T06:47:38.657Z,99625.00
2018-06-10T06:50:06.448Z,99623.00
2018-06-10T06:52:34.273Z,99618.00
2018-06-10T06:55:02.036Z,99615.00
2018-06-10T06:57:29.888Z,99614.00
2018-06-10T06:59:57.653Z,99613.00
2018-06-10T07:02:25.380Z,99616.00
2018-06-10T07:04:53.246Z,99613.00
2018-06-10T07:07:21.032Z,99610.00
2018-06-10T07:09:48.814Z,99605.00
2018-06-10T07:12:16.596Z,99609.00
2018-06-10T07:14:44.388Z,99606.00
2018-06-10T07:17:12.156Z,99602.00
2018-06-10T07:19:39.888Z,99604.00
2018-06-10T07:22:07.727Z,99605.00
2018-06-10T07:24:35.580Z,99614.00
2018-06-10T07:27:03.340Z,99614.00
2018-06-10T07:29:31.178Z,99617.00
2018-06-10T07:31:59.000Z,99607.00
2018-06-10T07:34:26.731Z,99611.00
2018-06-10T07:36:54.479Z,99620.00
2018-06-10T07:39:22.236Z,99614.00
2018-06-10T07:41:50.079Z,99605.00
2018-06-10T07:44:17.841Z,99605.00
2018-06-10T07:46:45.628Z,99605.00
2018-06-10T07:49:13.415Z,99612.00
2018-06-10T07:51:41.212Z,99616.00
2018-06-10T07:54:09.035Z,99618.00
2018-06-10T07:56:36.794Z,99609.00
2018-06-10T07:59:04.672Z,99609.00
2018-06-10T08:01:32.535Z,99609.00
2018-06-10T08:04:00.341Z,99610.00
2018-06-10T08:06:28.148Z,99618.00
2018-06-10T08:08:55.868Z,99611.00
2018-06-10T08:11:23.648Z,99607.00
2018-06-10T08:13:51.383Z,99610.00
2018-06-10T08:16:19.187Z,99614.00
2018-06-10T08:18:47.098Z,99618.00
2018-06-10T08:21:14.843Z,99616.00
2018-06-10T08:23:42.627Z,99624.00
2018-06-10T08:26:10.448Z,99626.00
2018-06-10T08:28:38.217Z,99623.00
2018-06-10T08:31:05.972Z,99614.00
2018-06-10T08:33:33.687Z,99616.00
2018-06-10T08:36:01.517Z,99611.00
2018-06-10T08:38:29.271Z,99598.00
2018-06-10T08:40:57.072Z,99598.00
2018-06-10T08:43:24.848Z,99592.00
2018-06-10T08:45:52.609Z,99594.00
2018-06-10T08:48:20.417Z,99597.00
2018-06-10T08:50:48.209Z,99595.00
2018-06-10T08:53:16.020Z,99599.00
2018-06-10T08:55:43.779Z,99595.00
2018-06-10T08:58:11.579Z,99591.00
2018-06-10T09:00:39.344Z,99600.00
2018-06-10T09:03:07.237Z,99598.00
2018-06-10T09:05:34.988Z,99603.00
2018-06-10T09:08:02.861Z,99602.00
2018-06-10T09:10:30.556Z,99609.00
2018-06-10T09:12:58.344Z,99606.00
2018-06-10T09:15:26.107Z,99615.00
2018-06-10T09:17:53.880Z,99611.00
2018-06-10T09:20:21.668Z,99614.00
2018-06-10T09:22:49.443Z,99621.00
2018-06-10T09:25:17.224Z,99611.00
2018-06-10T09:27:48.761Z,99612.00
2018-06-10T09:30:23.984Z,99614.00
2018-06-10T09:32:51.672Z,99611.00
2018-06-10T09:35:19.446Z,99612.00
2018-06-10T09:37:51.269Z,99608.00
2018-06-10T09:40:21.164Z,99610.00
2018-06-10T09:43:14.276Z,99606.00
2018-06-10T09:45:42.017Z,99607.00
2018-06-10T09:48:09.761Z,99602.00
2018-06-10T09:50:37.605Z,99593.00
2018-06-10T09:53:05.401Z,99598.00
2018-06-10T09:55:38.558Z,99601.00
2018-06-10T09:58:06.260Z,99595.00
2018-06-10T10:00:34.028Z,99597.00
2018-06-10T10:03:01.814Z,99600.00
2018-06-10T10:05:29.553Z,99596.00
2018-06-10T10:07:57.344Z,99605.00
2018-06-10T10:10:25.145Z,99599.00
2018-06-10T10:12:52.961Z,99596.00
2018-06-10T10:15:20.802Z,99598.00
2018-06-10T10:17:48.721Z,99588.00
2018-06-10T10:20:16.548Z,99589.00
2018-06-10T10:22:51.839Z,99583.00
2018-06-10T10:25:19.758Z,99592.00
2018-06-10T10:27:47.764Z,99590.00
2018-06-10T10:30:32.148Z,99590.00
2018-06-10T10:33:00.036Z,99583.00
2018-06-10T10:35:27.877Z,99581.00
2018-06-10T10:50:01.218Z,99576.00
2018-06-10T10:52:29.095Z,99579.00
2018-06-10T10:54:56.940Z,99582.00
2018-06-10T10:57:24.829Z,99580.00
2018-06-10T10:59:52.717Z,99573.00
2018-06-10T11:02:20.560Z,99573.00
2018-06-10T11:04:48.377Z,99574.00
2018-06-10T11:07:16.171Z,99580.00
2018-06-10T11:09:44.113Z,99573.00
2018-06-10T11:12:11.901Z,99568.00
2018-06-10T11:14:39.689Z,99563.00
2018-06-10T11:17:07.567Z,99570.00
2018-06-10T11:19:35.369Z,99570.00
2018-06-10T11:22:03.204Z,99554.00
2018-06-10T11:27:30.742Z,99554.00
2018-06-10T11:29:58.536Z,99546.00
2018-06-10T11:32:26.361Z,99554.00
2018-06-10T11:34:54.224Z,99549.00
2018-06-10T11:37:22.075Z,99546.00
2018-06-10T11:39:49.896Z,99535.00
2018-06-10T11:42:17.813Z,99532.00
2018-06-10T11:44:45.599Z,99530.00
2018-06-10T11:47:13.420Z,99532.00
2018-06-10T11:49:41.214Z,99521.00
2018-06-10T11:52:09.067Z,99528.00
2018-06-10T11:54:36.729Z,99512.00
2018-06-10T11:57:04.558Z,99509.00
2018-06-10T11:59:32.293Z,99511.00
2018-06-10T12:02:00.095Z,99511.00
2018-06-10T12:04:27.783Z,99506.00
2018-06-10T12:06:55.543Z,99503.00
2018-06-10T12:09:23.294Z,99493.00
2018-06-10T12:11:51.087Z,99493.00
2018-06-10T12:14:18.918Z,99494.00
2018-06-10T12:16:46.722Z,99493.00
2018-06-10T12:19:14.508Z,99494.00
2018-06-10T12:21:42.322Z,99492.00
2018-06-10T12:24:10.072Z,99483.00
2018-06-10T12:26:37.877Z,99489.00
2018-06-10T12:29:05.744Z,99478.00
2018-06-10T12:31:33.599Z,99482.00
2018-06-10T12:34:01.362Z,99482.00
2018-06-10T12:36:29.285Z,99489.00
2018-06-10T12:38:56.984Z,99479.00
2018-06-10T12:41:24.794Z,99491.00
2018-06-10T12:43:52.573Z,99492.00
2018-06-10T12:46:20.773Z,99483.00
2018-06-10T12:48:48.680Z,99484.00
2018-06-10T12:51:16.505Z,99487.00
2018-06-10T12:53:44.321Z,99486.00
2018-06-10T12:56:12.128Z,99493.00
2018-06-10T12:58:39.983Z,99490.00
2018-06-10T13:01:07.761Z,99495.00
2018-06-10T13:03:35.525Z,99494.00
2018-06-10T13:06:03.332Z,99496.00
2018-06-10T13:08:31.111Z,99498.00
2018-06-10T13:10:58.897Z,99499.00
2018-06-10T13:13:26.659Z,99494.00
2018-06-10T13:15:54.436Z,99482.00
2018-06-10T13:18:22.189Z,99489.00
2018-06-10T13:20:49.949Z,99485.00
2018-06-10T13:23:17.782Z,99487.00
2018-06-10T13:25:45.585Z,99477.00
2018-06-10T13:28:13.340Z,99470.00
2018-06-10T13:30:41.125Z,99467.00
2018-06-10T13:33:08.893Z,99462.00
2018-06-10T13:35:36.725Z,99464.00
2018-06-10T13:38:04.721Z,99468.00
2018-06-10T13:40:32.425Z,99464.00
2018-06-10T13:43:00.252Z,99463.00
2018-06-10T13:45:28.050Z,99465.00
2018-06-10T13:47:55.944Z,99465.00
2018-06-10T13:50:23.752Z,99461.00
2018-06-10T13:52:51.646Z,99466.00
2018-06-10T13:55:19.491Z,99463.00
2018-06-10T13:57:47.300Z,99456.00
2018-06-10T14:00:15.136Z,99456.00
2018-06-10T14:02:42.945Z,99446.00
2018-06-10T14:05:10.768Z,99433.00
2018-06-10T14:07:38.565Z,99432.00
2018-06-10T14:10:06.365Z,99428.00
2018-06-10T14:12:34.208Z,99430.00
2018-06-10T14:15:02.006Z,99430.00
2018-06-10T14:17:29.723Z,99431.00
2018-06-10T14:19:57.472Z,99428.00
2018-06-10T14:22:25.328Z,99414.00
2018-06-10T14:24:53.164Z,99421.00
2018-06-10T14:27:20.966Z,99413.00
2018-06-10T14:29:48.743Z,99403.00
2018-06-10T14:32:16.577Z,99416.00
2018-06-10T14:34:44.400Z,99423.00
2018-06-10T14:37:12.270Z,99426.00
2018-06-10T14:39:40.085Z,99412.00
2018-06-10T14:42:07.885Z,99426.00
2018-06-10T14:44:35.658Z,99425.00
2018-06-10T14:47:03.485Z,99434.00
2018-06-10T14:49:31.395Z,99445.00
2018-06-10T14:51:59.183Z,99443.00
2018-06-10T14:54:26.985Z,99442.00
2018-06-10T14:56:54.820Z,99440.00
2018-06-10T14:59:22.652Z,99442.00
2018-06-10T15:01:50.488Z,99453.00
2018-06-10T15:04:18.260Z,99448.00
2018-06-10T15:07:12.277Z,99451.00
2018-06-10T15:09:40.177Z,99447.00
2018-06-10T15:12:07.953Z,99453.00
2018-06-10T15:14:35.776Z,99452.00
2018-06-10T15:17:03.492Z,99440.00
2018-06-10T15:19:31.292Z,99444.00
2018-06-10T15:21:59.111Z,99435.00
2018-06-10T15:24:26.981Z,99425.00
2018-06-10T15:26:54.783Z,99428.00
2018-06-10T15:29:22.530Z,99417.00
2018-06-10T15:31:50.396Z,99426.00
2018-06-10T15:34:18.199Z,99410.00
2018-06-10T15:36:46.010Z,99400.00
2018-06-10T15:39:13.853Z,99397.00
2018-06-10T15:41:41.657Z,99401.00
2018-06-10T15:44:09.501Z,99404.00
2018-06-10T15:46:37.255Z,99401.00
2018-06-10T15:49:05.096Z,99415.00
2018-06-10T15:51:32.938Z,99412.00
2018-06-10T15:54:00.705Z,99415.00
2018-06-10T15:56:28.581Z,99409.00
2018-06-10T15:58:56.378Z,99420.00
2018-06-10T16:01:24.203Z,99431.00
2018-06-10T16:03:51.948Z,99433.00
2018-06-10T16:09:33.177Z,99422.00
2018-06-10T16:15:06.314Z,99424.00
2018-06-10T16:23:38.538Z,99426.00
2018-06-10T16:26:06.348Z,99430.00
2018-06-10T16:28:34.160Z,99429.00
2018-06-10T16:31:02.075Z,99428.00
2018-06-10T16:36:35.109Z,99418.00
2018-06-10T16:39:04.564Z,99420.00
2018-06-10T16:41:32.384Z,99413.00
2018-06-10T16:44:00.105Z,99402.00
2018-06-10T16:46:28.006Z,99403.00
2018-06-10T16:48:55.804Z,99406.00
2018-06-10T16:51:23.624Z,99410.00
2018-06-10T16:53:51.578Z,99413.00
2018-06-10T16:56:19.385Z,99414.00
2018-06-10T16:58:47.145Z,99413.00
2018-06-10T17:01:14.963Z,99408.00
2018-06-10T17:03:42.737Z,99425.00
2018-06-10T17:06:10.601Z,99428.00
2018-06-10T17:08:38.376Z,99443.00
2018-06-10T17:11:06.260Z,99446.00
2018-06-10T17:13:34.107Z,99446.00
2018-06-10T17:16:01.989Z,99439.00
2018-06-10T17:18:29.724Z,99437.00
2018-06-10T17:20:57.531Z,99440.00
2018-06-10T17:23:25.304Z,99434.00
2018-06-10T17:25:53.071Z,99432.00
2018-06-10T17:28:20.895Z,99437.00
2018-06-10T17:30:48.637Z,99452.00
2018-06-10T17:33:16.463Z,99466.00
2018-06-10T17:35:44.280Z,99469.00
2018-06-10T17:38:12.024Z,99464.00
2018-06-10T17:40:39.869Z,99453.00
2018-06-10T17:43:07.715Z,99447.00
2018-06-10T17:45:35.514Z,99464.00
2018-06-10T17:48:03.349Z,99469.00
2018-06-10T17:50:31.131Z,99455.00
2018-06-10T17:52:59.013Z,99473.00
2018-06-10T17:55:26.807Z,99483.00
2018-06-10T17:57:54.584Z,99497.00
2018-06-10T18:00:22.365Z,99499.00
2018-06-10T18:02:50.184Z,99512.00
2018-06-10T18:05:18.028Z,99510.00
2018-06-10T18:07:45.854Z,99508.00
2018-06-10T18:10:13.696Z,99512.00
2018-06-10T18:12:41.480Z,99510.00
2018-06-10T18:15:09.298Z,99504.00
2018-06-10T18:17:37.087Z,99498.00
2018-06-10T18:20:04.945Z,99489.00
2018-06-10T18:22:32.720Z,99485.00
2018-06-10T18:25:00.545Z,99488.00
2018-06-10T18:27:28.352Z,99498.00
2018-06-10T18:29:56.108Z,99509.00
2018-06-10T18:32:23.918Z,99513.00
2018-06-10T18:34:51.737Z,99516.00
2018-06-10T18:37:19.669Z,99521.00
2018-06-10T18:39:47.542Z,99515.00
2018-06-10T18:42:15.327Z,99524.00
2018-06-10T18:44:43.129Z,99523.00
2018-06-10T18:47:10.895Z,99531.00
2018-06-10T18:49:38.684Z,99528.00
2018-06-10T18:52:06.496Z,99525.00
2018-06-10T18:54:34.349Z,99527.00
2018-06-10T18:57:02.153Z,99524.00
2018-06-10T18:59:29.968Z,99552.00
2018-06-10T19:01:57.813Z,99561.00
2018-06-10T19:04:25.616Z,99548.00
2018-06-10T19:06:57.340Z,99543.00
2018-06-10T19:09:25.598Z,99551.00
2018-06-10T19:11:53.498Z,99564.00
2018-06-10T19:14:21.310Z,99563.00
2018-06-10T19:16:49.157Z,99569.00
2018-06-10T19:19:16.972Z,99567.00
2018-06-10T19:21:44.937Z,99577.00
2018-06-10T19:24:12.774Z,99578.00
2018-06-10T19:26:40.608Z,99581.00
2018-06-10T19:29:08.405Z,99592.00
2018-06-10T19:31:36.168Z,99585.00
2018-06-10T19:34:08.489Z,99589.00
2018-06-10T19:36:39.517Z,99585.00
2018-06-10T19:39:11.487Z,99590.00
2018-06-10T19:41:39.365Z,99583.00
2018-06-10T19:44:07.208Z,99591.00
2018-06-10T19:49:47.432Z,99605.00
2018-06-10T19:52:15.253Z,99620.00
2018-06-10T19:54:43.116Z,99612.00
2018-06-10T19:57:10.941Z,99629.00
2018-06-10T19:59:38.804Z,99616.00
2018-06-10T20:02:06.741Z,99610.00
2018-06-10T20:04:34.588Z,99607.00
2018-06-10T20:07:02.436Z,99603.00
2018-06-10T20:09:43.782Z,99589.00
2018-06-10T20:12:11.654Z,99578.00
2018-06-10T20:14:58.721Z,99579.00
2018-06-10T20:20:45.141Z,99589.00
2018-06-10T20:23:19.281Z,99574.00
2018-06-10T20:25:47.103Z,99574.00
2018-06-10T20:28:15.086Z,99571.00
2018-06-10T20:30:55.657Z,99570.00
2018-06-10T20:33:23.473Z,99569.00
2018-06-10T20:35:51.272Z,99584.00
2018-06-10T20:38:30.202Z,99582.00
2018-06-10T20:44:00.262Z,99590.00
2018-06-10T20:46:28.225Z,99591.00
2018-06-10T20:48:56.085Z,99592.00
2018-06-10T20:51:23.930Z,99582.00
2018-06-10T20:53:51.756Z,99588.00
2018-06-10T20:56:25.488Z,99594.00
2018-06-10T20:58:53.349Z,99597.00
2018-06-10T21:01:21.212Z,99604.00
2018-06-10T21:03:49.015Z,99609.00
2018-06-10T21:06:16.955Z,99608.00
2018-06-10T21:08:44.765Z,99612.00
2018-06-10T21:11:12.577Z,99619.00
2018-06-10T21:14:01.668Z,99616.00
2018-06-10T21:16:29.510Z,99618.00
2018-06-10T21:18:57.328Z,99614.00
2018-06-10T21:21:25.178Z,99603.00
2018-06-10T21:23:53.058Z,99614.00
2018-06-10T21:26:20.835Z,99611.00
2018-06-10T21:28:48.664Z,99610.00
2018-06-10T21:31:16.533Z,99618.00
2018-06-10T21:33:44.319Z,99605.00
2018-06-10T21:36:12.257Z,99610.00
2018-06-10T21:38:40.225Z,99604.00
2018-06-10T21:41:08.077Z,99603.00
2018-06-10T21:43:35.856Z,99607.00
2018-06-10T21:49:24.583Z,99615.00
2018-06-10T21:51:52.458Z,99608.00
2018-06-10T21:54:20.321Z,99620.00
2018-06-10T21:56:48.088Z,99616.00
2018-06-10T21:59:15.962Z,99618.00
2018-06-10T22:01:43.784Z,99613.00
2018-06-10T22:04:11.584Z,99613.00
2018-06-10T22:06:39.343Z,99616.00
2018-06-10T22:09:07.573Z,99624.00
2018-06-10T22:11:35.707Z,99620.00
2018-06-10T22:14:03.553Z,99633.00
2018-06-10T22:16:31.454Z,99627.00
2018-06-10T22:19:22.889Z,99622.00
2018-06-10T22:21:50.729Z,99618.00
2018-06-10T22:24:18.624Z,99615.00
2018-06-10T22:26:46.524Z,99619.00
2018-06-10T22:29:14.366Z,99608.00
2018-06-10T22:31:42.221Z,99617.00
2018-06-10T22:34:10.118Z,99617.00
2018-06-10T22:36:37.934Z,99619.00
2018-06-10T22:39:07.676Z,99619.00
2018-06-10T22:41:35.612Z,99619.00
2018-06-10T22:44:03.425Z,99631.00
2018-06-10T22:46:31.254Z,99625.00
2018-06-10T22:48:59.153Z,99625.00
2018-06-10T22:51:27.090Z,99622.00
2018-06-10T22:54:12.315Z,99626.00
2018-06-10T22:56:40.185Z,99629.00
2018-06-10T22:59:08.025Z,99633.00
2018-06-10T23:01:35.897Z,99633.00
2018-06-10T23:04:03.709Z,99633.00
2018-06-10T23:06:31.588Z,99628.00
2018-06-10T23:08:59.477Z,99623.00
2018-06-10T23:11:27.648Z,99617.00
2018-06-10T23:13:55.468Z,99621.00
2018-06-10T23:16:23.296Z,99607.00
2018-06-10T23:18:51.166Z,99618.00
2018-06-10T23:21:18.966Z,99624.00
2018-06-10T23:23:47.670Z,99618.00
2018-06-10T23:26:15.507Z,99617.00
2018-06-10T23:28:43.451Z,99619.00
2018-06-10T23:31:11.261Z,99623.00
2018-06-10T23:33:39.108Z,99626.00
2018-06-10T23:36:06.925Z,99622.00
2018-06-10T23:38:34.774Z,99628.00
2018-06-10T23:41:02.560Z,99633.00
2018-06-10T23:43:30.428Z,99623.00
2018-06-10T23:45:58.309Z,99627.00
2018-06-10T23:48:26.124Z,99629.00
2018-06-10T23:50:53.992Z,99622.00
2018-06-10T23:53:21.748Z,99629.00
2018-06-10T23:55:49.546Z,99627.00
2018-06-10T23:58:17.321Z,99635.00
